sensor_id;sensor_type;location;lat;lon;timestamp;P1;durP1;ratioP1;P2;durP2;ratioP2
57333;SDS011;43165;50.998;18.164;2023-01-08T00:09:14;152.60;;;63.30;;
57333;SDS011;43165;50.998;18.164;2023-01-08T00:18:56;297.30;;;90.20;;
57333;SDS011;43165;50.998;18.164;2023-01-08T00:28:39;202.00;;;63.60;;
57333;SDS011;43165;50.998;18.164;2023-01-08T00:38:28;86.40;;;40.60;;
57333;SDS011;43165;50.998;18.164;2023-01-08T00:48:10;85.50;;;39.20;;
57333;SDS011;43165;50.998;18.164;2023-01-08T00:57:53;77.00;;;38.80;;
57333;SDS011;43165;50.998;18.164;2023-01-08T01:07:40;85.60;;;39.90;;
57333;SDS011;43165;50.998;18.164;2023-01-08T01:17:23;140.40;;;64.40;;
57333;SDS011;43165;50.998;18.164;2023-01-08T01:27:05;174.10;;;66.60;;
57333;SDS011;43165;50.998;18.164;2023-01-08T01:54:18;57.10;;;22.50;;
57333;SDS011;43165;50.998;18.164;2023-01-08T02:04:01;97.10;;;44.60;;
57333;SDS011;43165;50.998;18.164;2023-01-08T02:14:12;101.20;;;42.40;;
57333;SDS011;43165;50.998;18.164;2023-01-08T02:24:23;81.40;;;40.10;;
57333;SDS011;43165;50.998;18.164;2023-01-08T02:34:10;79.70;;;35.50;;
57333;SDS011;43165;50.998;18.164;2023-01-08T02:44:31;97.20;;;36.80;;
57333;SDS011;43165;50.998;18.164;2023-01-08T02:54:17;86.10;;;37.40;;
57333;SDS011;43165;50.998;18.164;2023-01-08T03:04:07;43.10;;;16.30;;
57333;SDS011;43165;50.998;18.164;2023-01-08T03:24:04;66.00;;;25.50;;
57333;SDS011;43165;50.998;18.164;2023-01-08T03:33:49;59.30;;;26.10;;
57333;SDS011;43165;50.998;18.164;2023-01-08T03:43:36;44.30;;;20.80;;
57333;SDS011;43165;50.998;18.164;2023-01-08T03:53:19;50.00;;;24.90;;
57333;SDS011;43165;50.998;18.164;2023-01-08T04:10:21;49.70;;;24.50;;
57333;SDS011;43165;50.998;18.164;2023-01-08T04:20:03;48.00;;;22.90;;
57333;SDS011;43165;50.998;18.164;2023-01-08T04:29:46;43.50;;;23.50;;
57333;SDS011;43165;50.998;18.164;2023-01-08T04:39:28;27.70;;;12.10;;
57333;SDS011;43165;50.998;18.164;2023-01-08T04:49:10;20.90;;;14.70;;
57333;SDS011;43165;50.998;18.164;2023-01-08T04:58:54;39.40;;;26.10;;
57333;SDS011;43165;50.998;18.164;2023-01-08T05:08:37;48.80;;;21.60;;
57333;SDS011;43165;50.998;18.164;2023-01-08T05:18:18;45.00;;;20.40;;
57333;SDS011;43165;50.998;18.164;2023-01-08T05:28:00;34.70;;;21.20;;
57333;SDS011;43165;50.998;18.164;2023-01-08T05:37:42;55.70;;;25.40;;
57333;SDS011;43165;50.998;18.164;2023-01-08T05:47:28;37.70;;;22.30;;
57333;SDS011;43165;50.998;18.164;2023-01-08T06:04:27;59.50;;;29.00;;
57333;SDS011;43165;50.998;18.164;2023-01-08T06:14:09;52.00;;;23.70;;
57333;SDS011;43165;50.998;18.164;2023-01-08T06:23:51;51.80;;;26.70;;
57333;SDS011;43165;50.998;18.164;2023-01-08T06:33:33;52.00;;;24.90;;
57333;SDS011;43165;50.998;18.164;2023-01-08T06:43:16;58.80;;;28.00;;
57333;SDS011;43165;50.998;18.164;2023-01-08T06:53:07;61.30;;;30.10;;
57333;SDS011;43165;50.998;18.164;2023-01-08T07:02:53;73.60;;;38.30;;
57333;SDS011;43165;50.998;18.164;2023-01-08T07:12:35;61.30;;;29.90;;
57333;SDS011;43165;50.998;18.164;2023-01-08T07:22:17;74.40;;;37.50;;
57333;SDS011;43165;50.998;18.164;2023-01-08T07:32:00;105.00;;;41.60;;
57333;SDS011;43165;50.998;18.164;2023-01-08T07:41:42;112.70;;;40.50;;
57333;SDS011;43165;50.998;18.164;2023-01-08T07:51:25;86.70;;;34.60;;
57333;SDS011;43165;50.998;18.164;2023-01-08T07:56:48;210.10;;;96.10;;
57333;SDS011;43165;50.998;18.164;2023-01-08T08:06:30;103.40;;;38.80;;
57333;SDS011;43165;50.998;18.164;2023-01-08T08:16:13;74.10;;;38.20;;
57333;SDS011;43165;50.998;18.164;2023-01-08T08:25:56;54.50;;;34.30;;
57333;SDS011;43165;50.998;18.164;2023-01-08T08:35:38;23.00;;;16.90;;
57333;SDS011;43165;50.998;18.164;2023-01-08T08:45:24;32.00;;;22.70;;
57333;SDS011;43165;50.998;18.164;2023-01-08T08:55:10;44.70;;;23.30;;
57333;SDS011;43165;50.998;18.164;2023-01-08T09:04:58;41.40;;;23.80;;
57333;SDS011;43165;50.998;18.164;2023-01-08T09:14:40;47.10;;;25.80;;
57333;SDS011;43165;50.998;18.164;2023-01-08T09:24:21;51.90;;;25.10;;
57333;SDS011;43165;50.998;18.164;2023-01-08T09:34:03;54.10;;;26.70;;
57333;SDS011;43165;50.998;18.164;2023-01-08T09:43:46;45.20;;;23.10;;
57333;SDS011;43165;50.998;18.164;2023-01-08T09:53:43;77.80;;;30.60;;
57333;SDS011;43165;50.998;18.164;2023-01-08T10:03:29;57.20;;;27.00;;
57333;SDS011;43165;50.998;18.164;2023-01-08T10:13:22;62.90;;;28.20;;
57333;SDS011;43165;50.998;18.164;2023-01-08T10:23:12;53.20;;;27.40;;
57333;SDS011;43165;50.998;18.164;2023-01-08T10:33:22;31.70;;;14.10;;
57333;SDS011;43165;50.998;18.164;2023-01-08T10:43:16;69.80;;;28.10;;
57333;SDS011;43165;50.998;18.164;2023-01-08T10:53:22;29.20;;;17.80;;
57333;SDS011;43165;50.998;18.164;2023-01-08T11:03:25;69.50;;;28.60;;
57333;SDS011;43165;50.998;18.164;2023-01-08T11:20:50;41.90;;;24.10;;
57333;SDS011;43165;50.998;18.164;2023-01-08T11:30:34;55.00;;;27.40;;
57333;SDS011;43165;50.998;18.164;2023-01-08T11:50:58;70.50;;;30.70;;
57333;SDS011;43165;50.998;18.164;2023-01-08T12:01:14;46.90;;;27.80;;
57333;SDS011;43165;50.998;18.164;2023-01-08T12:11:31;60.60;;;23.30;;
57333;SDS011;43165;50.998;18.164;2023-01-08T12:32:50;66.60;;;34.90;;
57333;SDS011;43165;50.998;18.164;2023-01-08T12:43:14;96.80;;;43.80;;
57333;SDS011;43165;50.998;18.164;2023-01-08T13:03:27;69.30;;;31.00;;
57333;SDS011;43165;50.998;18.164;2023-01-08T13:13:35;66.90;;;28.70;;
57333;SDS011;43165;50.998;18.164;2023-01-08T13:23:25;44.40;;;20.30;;
57333;SDS011;43165;50.998;18.164;2023-01-08T13:33:35;46.50;;;26.70;;
57333;SDS011;43165;50.998;18.164;2023-01-08T13:50:51;64.20;;;39.30;;
57333;SDS011;43165;50.998;18.164;2023-01-08T14:00:45;34.90;;;23.40;;
57333;SDS011;43165;50.998;18.164;2023-01-08T14:10:48;39.30;;;20.00;;
57333;SDS011;43165;50.998;18.164;2023-01-08T14:20:35;33.90;;;20.90;;
57333;SDS011;43165;50.998;18.164;2023-01-08T14:30:25;42.60;;;22.40;;
57333;SDS011;43165;50.998;18.164;2023-01-08T14:40:14;203.10;;;84.60;;
57333;SDS011;43165;50.998;18.164;2023-01-08T14:50:02;57.30;;;29.80;;
57333;SDS011;43165;50.998;18.164;2023-01-08T14:59:47;100.10;;;37.60;;
57333;SDS011;43165;50.998;18.164;2023-01-08T15:09:55;160.30;;;53.10;;
57333;SDS011;43165;50.998;18.164;2023-01-08T15:19:47;50.50;;;25.90;;
57333;SDS011;43165;50.998;18.164;2023-01-08T15:29:45;235.50;;;49.00;;
57333;SDS011;43165;50.998;18.164;2023-01-08T15:39:29;342.30;;;79.30;;
57333;SDS011;43165;50.998;18.164;2023-01-08T15:49:29;556.40;;;160.30;;
57333;SDS011;43165;50.998;18.164;2023-01-08T15:59:13;639.70;;;211.70;;
57333;SDS011;43165;50.998;18.164;2023-01-08T16:08:56;286.30;;;114.90;;
57333;SDS011;43165;50.998;18.164;2023-01-08T16:18:41;178.60;;;80.20;;
57333;SDS011;43165;50.998;18.164;2023-01-08T16:28:32;57.50;;;37.70;;
57333;SDS011;43165;50.998;18.164;2023-01-08T16:38:24;48.00;;;31.80;;
57333;SDS011;43165;50.998;18.164;2023-01-08T16:48:16;16.90;;;15.00;;
57333;SDS011;43165;50.998;18.164;2023-01-08T16:58:03;42.30;;;26.60;;
57333;SDS011;43165;50.998;18.164;2023-01-08T17:07:53;64.80;;;36.20;;
57333;SDS011;43165;50.998;18.164;2023-01-08T17:17:37;97.70;;;51.20;;
57333;SDS011;43165;50.998;18.164;2023-01-08T17:27:19;89.80;;;45.20;;
57333;SDS011;43165;50.998;18.164;2023-01-08T17:37:02;129.70;;;64.30;;
57333;SDS011;43165;50.998;18.164;2023-01-08T17:47:03;105.30;;;48.20;;
57333;SDS011;43165;50.998;18.164;2023-01-08T17:56:49;105.90;;;45.00;;
57333;SDS011;43165;50.998;18.164;2023-01-08T18:06:32;75.80;;;34.70;;
57333;SDS011;43165;50.998;18.164;2023-01-08T18:16:19;70.30;;;33.40;;
57333;SDS011;43165;50.998;18.164;2023-01-08T18:26:02;122.60;;;48.30;;
57333;SDS011;43165;50.998;18.164;2023-01-08T18:35:45;54.80;;;27.60;;
57333;SDS011;43165;50.998;18.164;2023-01-08T18:45:33;27.00;;;21.50;;
57333;SDS011;43165;50.998;18.164;2023-01-08T18:55:16;56.40;;;25.10;;
57333;SDS011;43165;50.998;18.164;2023-01-08T19:05:00;67.30;;;32.80;;
57333;SDS011;43165;50.998;18.164;2023-01-08T19:14:44;45.40;;;21.80;;
57333;SDS011;43165;50.998;18.164;2023-01-08T19:24:25;46.10;;;22.30;;
57333;SDS011;43165;50.998;18.164;2023-01-08T19:34:08;39.60;;;23.10;;
57333;SDS011;43165;50.998;18.164;2023-01-08T19:44:08;77.20;;;33.70;;
57333;SDS011;43165;50.998;18.164;2023-01-08T19:53:52;63.80;;;28.50;;
57333;SDS011;43165;50.998;18.164;2023-01-08T20:03:40;55.50;;;18.80;;
57333;SDS011;43165;50.998;18.164;2023-01-08T20:13:31;46.80;;;23.40;;
57333;SDS011;43165;50.998;18.164;2023-01-08T20:23:16;27.90;;;17.90;;
57333;SDS011;43165;50.998;18.164;2023-01-08T20:32:58;124.90;;;59.20;;
57333;SDS011;43165;50.998;18.164;2023-01-08T20:42:40;127.30;;;55.00;;
57333;SDS011;43165;50.998;18.164;2023-01-08T20:52:27;72.70;;;33.40;;
57333;SDS011;43165;50.998;18.164;2023-01-08T21:02:10;86.80;;;31.50;;
57333;SDS011;43165;50.998;18.164;2023-01-08T21:11:57;38.90;;;23.80;;
57333;SDS011;43165;50.998;18.164;2023-01-08T21:21:39;69.60;;;27.40;;
57333;SDS011;43165;50.998;18.164;2023-01-08T21:31:26;53.00;;;27.50;;
57333;SDS011;43165;50.998;18.164;2023-01-08T21:41:15;58.60;;;30.20;;
57333;SDS011;43165;50.998;18.164;2023-01-08T21:51:36;37.60;;;18.10;;
57333;SDS011;43165;50.998;18.164;2023-01-08T22:01:37;56.10;;;29.80;;
57333;SDS011;43165;50.998;18.164;2023-01-08T22:11:19;53.60;;;28.50;;
57333;SDS011;43165;50.998;18.164;2023-01-08T22:21:02;55.50;;;28.20;;
57333;SDS011;43165;50.998;18.164;2023-01-08T22:30:45;59.40;;;24.40;;
57333;SDS011;43165;50.998;18.164;2023-01-08T22:40:27;39.00;;;17.10;;
57333;SDS011;43165;50.998;18.164;2023-01-08T22:50:10;38.80;;;16.30;;
57333;SDS011;43165;50.998;18.164;2023-01-08T22:59:52;73.10;;;14.40;;
57333;SDS011;43165;50.998;18.164;2023-01-08T23:09:42;37.10;;;20.30;;
57333;SDS011;43165;50.998;18.164;2023-01-08T23:19:24;69.00;;;31.80;;
57333;SDS011;43165;50.998;18.164;2023-01-08T23:29:06;74.90;;;24.90;;
57333;SDS011;43165;50.998;18.164;2023-01-08T23:38:53;37.00;;;20.10;;
57333;SDS011;43165;50.998;18.164;2023-01-08T23:48:39;65.70;;;27.50;;
57333;SDS011;43165;50.998;18.164;2023-01-08T23:58:20;59.80;;;23.60;;
